Time;durP1;ratioP1;P1;durP2;ratioP2;P2;SDS_P1;SDS_P2;PMS_P1;PMS_P2;Temp;Humidity;BMP_temperature;BMP_pressure;BME280_temperature;BME280_humidity;BME280_pressure;Samples;Min_cycle;Max_cycle;Signal;HPM_P1;HPM_P2
2023/10/31 00:01:49;;;;;;;10.60;6.63;;;11.70;99.90;;;;;;5100207;28;20051;-66
2023/10/31 00:04:15;;;;;;;11.77;6.95;;;11.70;99.90;;;;;;5106024;28;20068;-66
2023/10/31 00:06:41;;;;;;;9.68;6.30;;;11.70;99.90;;;;;;5082751;28;20050;-66
2023/10/31 00:09:06;;;;;;;11.13;7.35;;;11.70;99.90;;;;;;5100791;28;20083;-66
2023/10/31 00:11:32;;;;;;;10.48;6.88;;;11.70;99.90;;;;;;5102278;28;20032;-66
2023/10/31 00:13:58;;;;;;;9.63;6.78;;;11.70;99.90;;;;;;5103603;28;20084;-66
2023/10/31 00:16:24;;;;;;;10.43;7.38;;;11.80;99.90;;;;;;5102487;28;20070;-66
2023/10/31 00:18:49;;;;;;;9.27;7.28;;;11.80;99.90;;;;;;5099964;28;20467;-67
2023/10/31 00:21:15;;;;;;;12.18;7.20;;;11.80;99.90;;;;;;5103949;28;20064;-66
2023/10/31 00:23:45;;;;;;;10.02;6.88;;;11.80;99.90;;;;;;5107135;28;20028;-66
2023/10/31 00:26:11;;;;;;;11.75;7.32;;;11.80;99.90;;;;;;5100289;28;20032;-66
2023/10/31 00:28:37;;;;;;;9.32;7.20;;;11.80;99.90;;;;;;5100680;28;20044;-67
2023/10/31 00:31:03;;;;;;;11.38;7.22;;;11.80;99.90;;;;;;5104178;27;20024;-66
2023/10/31 00:33:29;;;;;;;9.30;6.78;;;11.80;99.90;;;;;;5099572;28;20039;-66
2023/10/31 00:35:55;;;;;;;10.48;7.22;;;11.80;99.90;;;;;;5105338;28;20093;-66
2023/10/31 00:38:21;;;;;;;10.68;7.07;;;11.80;99.90;;;;;;5080410;28;20039;-66
2023/10/31 00:40:47;;;;;;;10.32;6.78;;;11.80;99.90;;;;;;5101963;28;20168;-66
2023/10/31 00:43:13;;;;;;;10.02;7.05;;;11.80;99.90;;;;;;5100044;28;20065;-66
2023/10/31 00:45:38;;;;;;;11.25;7.15;;;11.80;99.90;;;;;;5103121;28;20036;-66
2023/10/31 00:48:04;;;;;;;11.63;7.20;;;11.90;99.90;;;;;;5101116;28;20036;-67
2023/10/31 00:50:30;;;;;;;9.40;7.13;;;11.80;99.90;;;;;;5084840;28;20078;-67
2023/10/31 00:52:56;;;;;;;10.80;7.22;;;11.80;99.90;;;;;;5105214;28;20032;-67
2023/10/31 00:55:21;;;;;;;12.25;7.22;;;11.80;99.90;;;;;;5085469;28;20372;-68
2023/10/31 00:57:47;;;;;;;10.50;7.10;;;11.80;99.90;;;;;;5103767;28;20412;-69
2023/10/31 01:00:13;;;;;;;10.98;7.60;;;11.80;99.90;;;;;;5103745;28;20099;-69
2023/10/31 01:02:39;;;;;;;9.13;6.32;;;11.90;99.90;;;;;;5101227;28;20032;-69
2023/10/31 01:05:05;;;;;;;9.95;7.00;;;11.90;99.90;;;;;;5082696;28;20040;-69
2023/10/31 01:07:31;;;;;;;8.40;6.53;;;11.90;99.90;;;;;;5103173;28;20070;-69
2023/10/31 01:09:56;;;;;;;9.48;6.95;;;11.90;99.90;;;;;;5100637;28;20032;-69
2023/10/31 01:12:22;;;;;;;9.20;6.68;;;11.90;99.90;;;;;;5102871;28;20106;-69
2023/10/31 01:14:48;;;;;;;10.52;6.75;;;11.90;99.90;;;;;;5103065;28;20044;-69
2023/10/31 01:17:13;;;;;;;9.98;6.97;;;11.80;99.90;;;;;;5097074;28;20044;-69
2023/10/31 01:19:39;;;;;;;10.98;7.15;;;11.80;99.90;;;;;;5086450;28;20036;-69
2023/10/31 01:22:05;;;;;;;9.50;6.13;;;11.90;99.90;;;;;;5100585;28;20035;-69
2023/10/31 01:24:31;;;;;;;9.25;6.82;;;11.90;99.90;;;;;;5087547;28;20052;-70
2023/10/31 01:26:56;;;;;;;8.60;6.30;;;11.90;99.90;;;;;;5105757;28;20095;-70
2023/10/31 01:29:22;;;;;;;8.05;6.20;;;11.90;99.90;;;;;;5101417;28;20029;-70
2023/10/31 01:31:48;;;;;;;8.82;5.97;;;11.90;99.90;;;;;;5103298;28;20124;-70
2023/10/31 01:34:13;;;;;;;8.35;5.88;;;11.90;99.90;;;;;;5107642;28;20055;-70
2023/10/31 01:36:39;;;;;;;8.40;6.07;;;11.90;99.90;;;;;;5101320;28;20047;-69
2023/10/31 01:39:05;;;;;;;7.70;5.95;;;11.90;99.90;;;;;;5102200;28;20092;-68
2023/10/31 01:41:30;;;;;;;10.32;6.28;;;11.90;99.90;;;;;;5100747;28;20047;-69
2023/10/31 01:43:56;;;;;;;7.55;6.03;;;11.90;99.90;;;;;;5084762;28;20051;-69
2023/10/31 01:46:22;;;;;;;7.65;5.60;;;11.90;99.90;;;;;;5102216;28;20063;-69
2023/10/31 01:48:48;;;;;;;8.18;5.88;;;11.90;99.90;;;;;;5091011;28;20066;-69
2023/10/31 01:51:13;;;;;;;7.28;5.65;;;11.90;99.90;;;;;;5103598;28;20043;-69
2023/10/31 01:53:39;;;;;;;9.10;6.35;;;11.90;99.90;;;;;;5068263;28;20051;-68
2023/10/31 01:56:06;;;;;;;7.55;4.18;;;12.00;99.90;;;;;;5099278;28;20044;-68
2023/10/31 01:58:35;;;;;;;5.65;2.95;;;11.90;99.90;;;;;;5101645;28;20078;-69
2023/10/31 02:01:01;;;;;;;4.13;2.70;;;11.80;99.90;;;;;;5100146;28;20081;-68
2023/10/31 02:03:28;;;;;;;3.13;1.00;;;11.70;99.90;;;;;;5098657;28;20047;-69
2023/10/31 02:05:54;;;;;;;1.10;0.40;;;11.60;99.90;;;;;;5102468;28;20036;-68
2023/10/31 02:08:20;;;;;;;0.30;0.30;;;11.40;99.90;;;;;;5102006;28;20057;-69
2023/10/31 02:10:46;;;;;;;0.52;0.40;;;11.20;99.90;;;;;;5102207;28;20040;-70
2023/10/31 02:13:16;;;;;;;0.50;0.30;;;11.10;99.90;;;;;;5101511;28;20054;-70
2023/10/31 02:15:42;;;;;;;0.38;0.30;;;10.90;99.90;;;;;;5101372;28;20051;-70
2023/10/31 02:18:09;;;;;;;0.20;0.20;;;10.80;99.90;;;;;;5097238;28;20040;-68
2023/10/31 02:20:35;;;;;;;1.83;0.30;;;10.70;99.90;;;;;;5086652;28;20051;-67
2023/10/31 02:23:02;;;;;;;0.20;0.20;;;10.60;99.90;;;;;;5103309;28;20102;-68
2023/10/31 02:25:28;;;;;;;0.35;0.30;;;10.60;99.90;;;;;;5097581;28;20051;-67
2023/10/31 02:27:54;;;;;;;0.88;0.30;;;10.50;99.90;;;;;;5085374;28;20490;-67
2023/10/31 02:30:19;;;;;;;0.30;0.30;;;10.50;99.90;;;;;;5102512;28;20044;-67
2023/10/31 02:32:46;;;;;;;0.30;0.30;;;10.40;99.90;;;;;;5102951;28;20040;-67
2023/10/31 02:35:12;;;;;;;1.02;0.30;;;10.40;99.90;;;;;;5103376;28;20043;-67
2023/10/31 02:37:38;;;;;;;0.95;0.35;;;10.30;99.90;;;;;;5098350;28;20097;-68
2023/10/31 02:40:04;;;;;;;1.10;0.50;;;10.30;99.90;;;;;;5102925;28;20048;-67
2023/10/31 02:42:30;;;;;;;1.00;0.50;;;10.30;99.90;;;;;;5101146;28;20044;-66
2023/10/31 02:44:56;;;;;;;2.25;0.52;;;10.20;99.90;;;;;;5085577;28;20067;-67
2023/10/31 02:47:22;;;;;;;1.52;0.45;;;10.20;99.90;;;;;;5098693;28;20043;-67
2023/10/31 02:49:47;;;;;;;1.60;0.60;;;10.10;99.90;;;;;;5100824;28;20090;-70
2023/10/31 02:52:13;;;;;;;1.55;0.57;;;10.10;99.90;;;;;;5102948;28;20036;-69
2023/10/31 02:54:39;;;;;;;1.30;0.50;;;10.00;99.90;;;;;;5098515;28;20035;-70
2023/10/31 02:57:04;;;;;;;1.70;0.60;;;10.00;99.90;;;;;;5099845;28;20101;-67
2023/10/31 02:59:30;;;;;;;1.30;0.70;;;9.90;99.90;;;;;;5098827;28;20084;-68
2023/10/31 03:01:57;;;;;;;2.20;0.57;;;9.80;99.90;;;;;;5101445;28;20074;-69
2023/10/31 03:04:23;;;;;;;1.80;0.60;;;9.80;99.90;;;;;;5100010;28;20147;-68
2023/10/31 03:06:49;;;;;;;1.15;0.50;;;9.80;99.90;;;;;;5102462;28;20039;-67
2023/10/31 03:09:15;;;;;;;1.08;0.60;;;9.70;99.90;;;;;;5103636;28;20374;-69
2023/10/31 03:11:41;;;;;;;0.70;0.40;;;9.70;99.90;;;;;;5087329;28;20071;-68
2023/10/31 03:14:06;;;;;;;1.10;0.50;;;9.70;99.90;;;;;;5103469;28;20548;-69
2023/10/31 03:16:35;;;;;;;2.05;0.70;;;9.70;99.90;;;;;;5101511;28;20043;-68
2023/10/31 03:19:01;;;;;;;1.00;0.55;;;9.70;99.90;;;;;;5103251;28;20146;-68
2023/10/31 03:21:26;;;;;;;3.20;0.60;;;9.60;99.90;;;;;;5105337;28;20037;-67
2023/10/31 03:23:55;;;;;;;1.67;0.60;;;9.60;99.90;;;;;;5102576;28;20060;-69
2023/10/31 03:26:21;;;;;;;1.73;0.80;;;9.50;99.90;;;;;;5104549;28;20071;-67
2023/10/31 03:28:47;;;;;;;1.90;0.70;;;9.50;99.90;;;;;;5102008;28;20032;-67
2023/10/31 03:31:14;;;;;;;1.67;0.65;;;9.50;99.90;;;;;;5105011;28;20044;-66
2023/10/31 03:33:41;;;;;;;1.90;0.60;;;9.50;99.90;;;;;;5101678;28;20036;-66
2023/10/31 03:36:08;;;;;;;1.80;0.80;;;9.50;99.90;;;;;;5103049;28;20044;-69
2023/10/31 03:38:34;;;;;;;2.45;0.90;;;9.50;99.90;;;;;;5101427;28;20068;-67
2023/10/31 03:41:00;;;;;;;3.30;1.10;;;9.50;99.90;;;;;;5103473;28;20036;-68
2023/10/31 03:43:26;;;;;;;3.00;1.30;;;9.50;99.90;;;;;;5101723;28;20051;-67
2023/10/31 03:45:51;;;;;;;3.85;1.77;;;9.50;99.90;;;;;;5104461;28;20036;-67
2023/10/31 03:48:17;;;;;;;4.10;1.67;;;9.50;99.90;;;;;;5102414;28;20046;-68
2023/10/31 03:50:43;;;;;;;3.45;2.00;;;9.50;99.90;;;;;;5107044;28;20029;-68
2023/10/31 03:53:09;;;;;;;3.85;1.88;;;9.50;99.90;;;;;;5097569;28;20036;-67
2023/10/31 03:55:34;;;;;;;3.30;1.52;;;9.50;99.90;;;;;;5101506;28;20040;-67
2023/10/31 03:58:00;;;;;;;3.30;1.70;;;9.50;99.90;;;;;;5107126;28;20169;-68
2023/10/31 04:00:26;;;;;;;4.65;1.70;;;9.50;99.90;;;;;;5103700;28;20068;-67
2023/10/31 04:02:52;;;;;;;3.55;1.60;;;9.50;99.90;;;;;;5101284;28;20860;-68
2023/10/31 04:05:18;;;;;;;2.85;1.38;;;9.50;99.90;;;;;;5102665;28;20067;-67
2023/10/31 04:07:47;;;;;;;4.13;1.60;;;9.50;99.90;;;;;;5105576;28;20055;-68
2023/10/31 04:10:13;;;;;;;3.75;1.45;;;9.50;99.90;;;;;;5106578;28;20048;-68
2023/10/31 04:12:39;;;;;;;3.70;1.25;;;9.50;99.90;;;;;;5100933;28;20059;-68
2023/10/31 04:15:05;;;;;;;3.55;1.10;;;9.50;99.90;;;;;;5089606;28;20047;-67
2023/10/31 04:17:31;;;;;;;3.03;1.05;;;9.50;99.90;;;;;;5104359;28;20108;-69
2023/10/31 04:19:57;;;;;;;3.05;1.08;;;9.50;99.90;;;;;;5103713;28;20032;-67
2023/10/31 04:22:22;;;;;;;2.20;1.20;;;9.50;99.90;;;;;;5098202;28;20040;-66
2023/10/31 04:24:48;;;;;;;2.50;1.00;;;9.50;99.90;;;;;;5105682;28;20032;-66
2023/10/31 04:27:14;;;;;;;5.03;1.27;;;9.50;99.90;;;;;;5102700;28;20043;-66
2023/10/31 04:29:39;;;;;;;2.17;1.10;;;9.50;99.90;;;;;;5101570;28;20483;-67
2023/10/31 04:32:05;;;;;;;4.97;1.27;;;9.50;99.90;;;;;;5104946;28;20046;-67
2023/10/31 04:34:31;;;;;;;2.67;1.40;;;9.50;99.90;;;;;;5106767;28;20039;-68
2023/10/31 04:36:57;;;;;;;4.57;1.55;;;9.50;99.90;;;;;;5101181;28;20053;-68
2023/10/31 04:39:24;;;;;;;1.65;1.00;;;9.50;99.90;;;;;;5103303;28;20040;-67
2023/10/31 04:41:49;;;;;;;3.03;1.10;;;9.50;99.90;;;;;;5100399;28;20036;-67
2023/10/31 04:44:16;;;;;;;2.45;0.93;;;9.50;99.90;;;;;;5101958;28;20040;-67
2023/10/31 04:46:42;;;;;;;2.65;1.10;;;9.60;99.90;;;;;;5100528;28;20071;-67
2023/10/31 04:49:08;;;;;;;1.98;0.77;;;9.60;99.90;;;;;;5106266;28;20039;-67
2023/10/31 04:51:35;;;;;;;1.60;0.68;;;9.60;99.90;;;;;;5105115;28;20044;-66
2023/10/31 04:54:01;;;;;;;1.63;0.80;;;9.60;99.90;;;;;;5106991;28;20036;-66
2023/10/31 04:56:27;;;;;;;2.10;0.82;;;9.60;99.90;;;;;;5082798;28;20044;-67
2023/10/31 04:58:52;;;;;;;1.10;0.50;;;9.60;99.90;;;;;;5081147;28;20518;-67
2023/10/31 05:01:19;;;;;;;1.55;0.68;;;9.60;99.90;;;;;;5109305;28;20031;-69
2023/10/31 05:03:45;;;;;;;1.08;0.52;;;9.60;99.90;;;;;;5081439;28;20040;-69
2023/10/31 05:06:11;;;;;;;1.77;0.70;;;9.70;99.90;;;;;;5099328;28;22761;-68
2023/10/31 05:08:37;;;;;;;1.80;0.63;;;9.60;99.90;;;;;;5083934;28;20075;-69
2023/10/31 05:11:03;;;;;;;1.50;0.98;;;9.70;99.90;;;;;;5099830;28;20040;-68
2023/10/31 05:13:28;;;;;;;2.28;1.10;;;9.70;99.90;;;;;;5105981;28;20036;-68
2023/10/31 05:15:54;;;;;;;1.65;0.80;;;9.70;99.90;;;;;;5099769;28;20032;-68
2023/10/31 05:18:20;;;;;;;1.88;0.80;;;9.70;99.90;;;;;;5085561;28;20085;-67
2023/10/31 05:20:46;;;;;;;4.00;1.00;;;9.70;99.90;;;;;;5103149;28;20032;-67
2023/10/31 05:23:12;;;;;;;2.47;0.77;;;9.70;99.90;;;;;;5103405;28;20044;-67
2023/10/31 05:25:37;;;;;;;3.03;1.55;;;9.70;99.90;;;;;;5103644;28;20093;-67
2023/10/31 05:28:04;;;;;;;1.40;0.70;;;9.60;99.90;;;;;;5103702;28;20473;-68
2023/10/31 05:30:30;;;;;;;1.75;0.85;;;9.60;99.90;;;;;;5104453;28;20032;-67
2023/10/31 05:32:55;;;;;;;2.63;1.00;;;9.60;99.90;;;;;;5102296;28;20031;-68
2023/10/31 05:35:21;;;;;;;1.75;0.80;;;9.60;99.90;;;;;;5101178;28;20448;-68
2023/10/31 05:37:47;;;;;;;1.63;0.90;;;9.60;99.90;;;;;;5080716;28;20052;-68
2023/10/31 05:40:14;;;;;;;1.70;0.80;;;9.60;99.90;;;;;;5104012;28;20036;-68
2023/10/31 05:42:40;;;;;;;2.03;0.85;;;9.50;99.90;;;;;;5099643;28;20052;-68
2023/10/31 05:45:06;;;;;;;2.20;0.80;;;9.50;99.90;;;;;;5105818;28;20050;-68
2023/10/31 05:47:32;;;;;;;2.47;0.82;;;9.50;99.90;;;;;;5104221;28;20043;-68
2023/10/31 05:49:58;;;;;;;3.00;0.85;;;9.50;99.90;;;;;;5106342;28;20394;-68
2023/10/31 05:52:32;;;;;;;3.63;1.08;;;9.50;99.90;;;;;;5109379;28;20197;-69
2023/10/31 05:54:58;;;;;;;2.83;1.00;;;9.50;99.90;;;;;;5103034;28;20040;-68
2023/10/31 05:57:24;;;;;;;3.92;1.55;;;9.50;99.90;;;;;;5106933;28;20051;-69
2023/10/31 05:59:49;;;;;;;4.13;1.00;;;9.50;99.90;;;;;;5081439;28;20040;-69
2023/10/31 06:02:15;;;;;;;3.40;1.40;;;9.50;99.90;;;;;;5101328;28;20036;-69
2023/10/31 06:04:41;;;;;;;3.10;1.35;;;9.50;99.90;;;;;;5103369;28;20129;-68
2023/10/31 06:07:07;;;;;;;3.28;1.50;;;9.40;99.90;;;;;;5080651;28;20534;-68
2023/10/31 06:09:33;;;;;;;2.70;1.33;;;9.40;99.90;;;;;;5100518;28;20115;-68
2023/10/31 06:12:00;;;;;;;3.08;1.55;;;9.50;99.90;;;;;;5080631;28;20456;-69
2023/10/31 06:14:26;;;;;;;2.53;1.20;;;9.50;99.90;;;;;;5081191;28;20110;-68
2023/10/31 06:16:52;;;;;;;3.60;1.48;;;9.50;99.90;;;;;;5104879;28;20148;-68
2023/10/31 06:19:18;;;;;;;3.42;1.20;;;9.50;99.90;;;;;;5101729;28;20075;-68
2023/10/31 06:21:43;;;;;;;2.80;1.30;;;9.50;99.90;;;;;;5099435;28;20071;-68
2023/10/31 06:24:09;;;;;;;2.33;0.93;;;9.50;99.90;;;;;;5103856;28;20995;-69
2023/10/31 06:26:35;;;;;;;2.28;1.17;;;9.50;99.90;;;;;;5099880;28;20048;-69
2023/10/31 06:29:01;;;;;;;2.00;1.13;;;9.50;99.90;;;;;;5102090;28;20047;-69
2023/10/31 06:31:27;;;;;;;2.20;1.40;;;9.50;99.90;;;;;;5100255;28;20030;-69
2023/10/31 06:33:52;;;;;;;3.22;1.80;;;9.50;99.90;;;;;;5082108;28;20028;-68
2023/10/31 06:36:18;;;;;;;2.40;1.30;;;9.50;99.90;;;;;;5104002;28;20039;-71
2023/10/31 06:38:44;;;;;;;2.45;1.27;;;9.50;99.90;;;;;;5084594;28;20047;-69
2023/10/31 06:41:10;;;;;;;2.15;0.90;;;9.50;99.90;;;;;;5087878;28;20074;-68
2023/10/31 06:43:35;;;;;;;2.88;1.10;;;9.50;99.90;;;;;;5091528;28;20032;-69
2023/10/31 06:46:04;;;;;;;1.98;0.70;;;9.50;99.90;;;;;;5081490;28;20047;-69
2023/10/31 06:48:29;;;;;;;2.17;0.88;;;9.50;99.90;;;;;;5087714;28;20115;-71
2023/10/31 06:50:55;;;;;;;6.13;1.15;;;9.50;99.90;;;;;;5080722;28;20045;-69
2023/10/31 06:53:21;;;;;;;2.42;1.25;;;9.50;99.90;;;;;;5082848;28;20104;-70
2023/10/31 06:55:47;;;;;;;3.55;1.60;;;9.50;99.90;;;;;;5086917;28;20040;-68
2023/10/31 06:58:12;;;;;;;2.83;1.40;;;9.50;99.90;;;;;;5082482;28;20041;-67
2023/10/31 07:00:38;;;;;;;2.78;1.67;;;9.50;99.90;;;;;;5085540;28;20032;-67
2023/10/31 07:03:08;;;;;;;3.42;1.40;;;9.50;99.90;;;;;;5083458;28;20044;-68
2023/10/31 07:05:35;;;;;;;2.78;1.70;;;9.50;99.90;;;;;;5084761;28;20048;-67
2023/10/31 07:08:00;;;;;;;2.85;1.75;;;9.50;99.90;;;;;;5097581;28;20060;-68
2023/10/31 07:10:26;;;;;;;3.88;1.30;;;9.60;99.90;;;;;;5083010;28;20056;-67
2023/10/31 07:12:52;;;;;;;5.95;1.92;;;9.60;99.90;;;;;;5086636;28;20028;-67
2023/10/31 07:15:17;;;;;;;5.10;1.83;;;9.60;99.90;;;;;;5083260;28;20522;-68
2023/10/31 07:17:43;;;;;;;3.45;1.50;;;9.60;99.90;;;;;;5084994;28;20097;-67
2023/10/31 07:20:09;;;;;;;3.90;1.70;;;9.60;99.90;;;;;;5081900;28;20044;-67
2023/10/31 07:22:35;;;;;;;2.33;1.40;;;9.60;99.90;;;;;;5097682;28;20092;-67
2023/10/31 07:25:03;;;;;;;3.65;1.60;;;9.60;99.90;;;;;;5083916;28;20513;-67
2023/10/31 07:27:29;;;;;;;2.42;1.42;;;9.60;99.90;;;;;;5082643;28;20024;-68
2023/10/31 07:29:55;;;;;;;2.40;1.42;;;9.70;99.90;;;;;;5090158;28;20033;-67
2023/10/31 07:32:21;;;;;;;2.83;1.30;;;9.70;99.90;;;;;;5087426;28;20036;-68
2023/10/31 07:34:46;;;;;;;3.10;1.95;;;9.70;99.90;;;;;;5099266;28;20036;-68
2023/10/31 07:37:12;;;;;;;5.13;2.38;;;9.70;99.90;;;;;;5087459;28;20036;-68
2023/10/31 07:39:38;;;;;;;4.05;1.90;;;9.80;99.90;;;;;;5101688;28;20049;-67
2023/10/31 07:42:04;;;;;;;4.20;2.17;;;9.70;99.90;;;;;;5089120;28;20066;-66
2023/10/31 07:44:30;;;;;;;4.57;2.28;;;9.70;99.90;;;;;;5100303;28;20051;-67
2023/10/31 07:46:55;;;;;;;4.82;1.92;;;9.80;99.90;;;;;;5088009;28;20036;-67
2023/10/31 07:49:21;;;;;;;4.53;2.63;;;9.80;99.90;;;;;;5089656;28;20068;-68
2023/10/31 07:51:48;;;;;;;5.13;2.70;;;9.80;99.90;;;;;;5084077;28;20048;-68
2023/10/31 07:54:14;;;;;;;4.07;2.45;;;9.80;99.90;;;;;;5080399;28;20117;-67
2023/10/31 07:56:40;;;;;;;4.68;2.53;;;9.90;99.90;;;;;;5080738;28;20056;-67
2023/10/31 07:59:07;;;;;;;4.75;2.80;;;9.90;99.90;;;;;;5082135;28;20044;-67
2023/10/31 08:01:33;;;;;;;4.40;2.67;;;9.90;99.90;;;;;;5085399;28;20028;-67
2023/10/31 08:03:59;;;;;;;6.45;2.47;;;10.00;99.90;;;;;;5080198;28;20099;-68
2023/10/31 08:06:25;;;;;;;4.03;2.58;;;10.00;99.90;;;;;;5075840;28;21181;-67
2023/10/31 08:08:51;;;;;;;4.30;2.47;;;10.00;99.90;;;;;;5093939;28;20119;-68
2023/10/31 08:11:16;;;;;;;3.78;2.42;;;10.10;99.90;;;;;;5101891;28;20055;-67
2023/10/31 08:13:42;;;;;;;3.20;2.03;;;10.20;99.90;;;;;;5082256;28;20033;-66
2023/10/31 08:16:08;;;;;;;3.78;2.10;;;10.20;99.90;;;;;;5086160;28;20064;-69
2023/10/31 08:18:34;;;;;;;4.18;2.10;;;10.30;99.90;;;;;;5086972;28;20048;-68
2023/10/31 08:21:00;;;;;;;4.13;2.22;;;10.30;99.90;;;;;;5083674;28;20032;-68
2023/10/31 08:23:27;;;;;;;3.42;2.30;;;10.40;99.90;;;;;;5087128;28;20052;-68
2023/10/31 08:25:52;;;;;;;5.25;2.28;;;10.50;99.90;;;;;;5083010;28;20534;-67
2023/10/31 08:28:18;;;;;;;3.20;2.05;;;10.50;99.90;;;;;;5079994;28;20091;-68
2023/10/31 08:30:44;;;;;;;3.85;2.03;;;10.50;99.90;;;;;;5084305;28;20095;-67
2023/10/31 08:33:09;;;;;;;2.40;1.60;;;10.60;99.90;;;;;;5094185;28;20055;-68
2023/10/31 08:35:35;;;;;;;3.63;1.77;;;10.60;99.90;;;;;;5086602;28;20089;-67
2023/10/31 08:38:01;;;;;;;2.45;1.52;;;10.70;99.90;;;;;;5081922;28;20041;-68
2023/10/31 08:40:26;;;;;;;2.73;1.70;;;10.60;99.90;;;;;;5054268;28;1104566;-67
2023/10/31 08:42:52;;;;;;;3.65;1.30;;;10.70;99.90;;;;;;5084209;28;20556;-69
2023/10/31 08:45:18;;;;;;;3.55;1.70;;;10.80;99.90;;;;;;5083489;28;20039;-67
2023/10/31 08:47:44;;;;;;;3.35;1.35;;;10.70;99.90;;;;;;5083765;28;20047;-67
2023/10/31 08:50:11;;;;;;;2.22;1.20;;;10.80;99.90;;;;;;5083311;28;20045;-68
2023/10/31 08:52:37;;;;;;;2.70;1.25;;;10.90;99.90;;;;;;5083451;28;20096;-68
2023/10/31 08:55:03;;;;;;;2.75;1.30;;;10.90;99.90;;;;;;5081826;28;20043;-67
2023/10/31 08:57:29;;;;;;;4.45;1.10;;;11.00;99.90;;;;;;5083749;28;20746;-67
2023/10/31 08:59:55;;;;;;;3.60;1.20;;;11.00;99.90;;;;;;5091117;28;20064;-67
2023/10/31 09:02:21;;;;;;;1.30;0.70;;;11.10;99.90;;;;;;5082827;28;20186;-68
2023/10/31 09:04:46;;;;;;;1.60;0.80;;;11.10;99.90;;;;;;5084921;28;20100;-68
2023/10/31 09:07:14;;;;;;;2.17;0.77;;;11.20;99.90;;;;;;5093924;28;20048;-69
2023/10/31 09:09:39;;;;;;;1.83;0.80;;;11.30;99.90;;;;;;5083465;28;20104;-68
2023/10/31 09:12:05;;;;;;;3.25;0.80;;;11.30;99.90;;;;;;5079889;28;20041;-68
2023/10/31 09:14:31;;;;;;;2.40;0.65;;;11.30;99.90;;;;;;5096483;28;20503;-68
2023/10/31 09:16:57;;;;;;;1.92;0.60;;;11.30;99.90;;;;;;5079056;28;20048;-68
2023/10/31 09:19:22;;;;;;;3.25;0.77;;;11.30;99.90;;;;;;5083370;28;20044;-68
2023/10/31 09:21:48;;;;;;;2.80;0.60;;;11.30;99.90;;;;;;5081992;28;20044;-68
2023/10/31 09:24:14;;;;;;;4.40;0.60;;;11.30;99.90;;;;;;5077768;28;20100;-68
2023/10/31 09:26:43;;;;;;;2.88;0.70;;;11.30;99.90;;;;;;5079972;28;20058;-68
2023/10/31 09:29:10;;;;;;;1.90;1.08;;;11.40;99.90;;;;;;5079128;28;20044;-68
2023/10/31 09:31:36;;;;;;;2.22;0.70;;;11.40;99.90;;;;;;5082915;28;20080;-68
2023/10/31 09:34:03;;;;;;;2.42;0.60;;;11.50;99.90;;;;;;5082899;28;20036;-67
2023/10/31 09:36:34;;;;;;;1.38;0.57;;;11.50;99.90;;;;;;5081320;28;20044;-68
2023/10/31 09:39:00;;;;;;;2.10;0.50;;;11.50;99.90;;;;;;5083486;28;20056;-66
2023/10/31 09:41:25;;;;;;;2.20;0.50;;;11.40;99.90;;;;;;5101093;28;20048;-68
2023/10/31 09:43:51;;;;;;;1.42;0.40;;;11.50;99.90;;;;;;5104846;28;20099;-67
2023/10/31 09:46:17;;;;;;;2.83;0.65;;;11.50;99.90;;;;;;5103561;28;20040;-69
2023/10/31 09:48:44;;;;;;;2.45;0.70;;;11.50;99.90;;;;;;5099953;28;20044;-68
2023/10/31 09:51:13;;;;;;;1.88;0.57;;;11.40;99.90;;;;;;5099677;28;20043;-67
2023/10/31 09:53:40;;;;;;;1.27;0.60;;;11.40;99.90;;;;;;5104784;28;20522;-68
2023/10/31 09:56:07;;;;;;;1.50;0.60;;;11.40;99.90;;;;;;5097130;28;20052;-67
2023/10/31 09:58:33;;;;;;;2.90;0.60;;;11.30;99.90;;;;;;5100711;28;20040;-68
2023/10/31 10:01:00;;;;;;;2.70;0.60;;;11.20;99.90;;;;;;5102286;28;20109;-67
2023/10/31 10:03:26;;;;;;;1.52;0.65;;;11.20;99.90;;;;;;5097647;28;20043;-68
2023/10/31 10:05:52;;;;;;;2.03;0.60;;;11.10;99.90;;;;;;5100981;28;20137;-68
2023/10/31 10:08:19;;;;;;;1.77;0.57;;;11.00;99.90;;;;;;5095485;28;20036;-67
2023/10/31 10:10:44;;;;;;;1.75;0.60;;;10.90;99.90;;;;;;5101164;28;20032;-69
2023/10/31 10:13:12;;;;;;;2.25;0.60;;;10.90;99.90;;;;;;5101786;28;20060;-69
2023/10/31 10:15:49;;;;;;;2.55;0.50;;;10.90;99.90;;;;;;5101527;28;20054;-70
2023/10/31 10:18:29;;;;;;;1.02;0.47;;;10.90;99.90;;;;;;5105577;28;20068;-68
2023/10/31 10:20:56;;;;;;;0.55;0.30;;;10.90;99.90;;;;;;5100484;28;20123;-68
2023/10/31 10:23:23;;;;;;;1.30;0.30;;;10.90;99.90;;;;;;5102832;28;20039;-69
2023/10/31 10:25:49;;;;;;;1.23;0.35;;;10.90;99.90;;;;;;5098751;28;20056;-69
2023/10/31 10:28:15;;;;;;;1.13;0.50;;;10.80;99.90;;;;;;5104074;28;20522;-69
2023/10/31 10:30:41;;;;;;;1.17;0.50;;;10.80;99.90;;;;;;5110532;28;20043;-69
2023/10/31 10:33:07;;;;;;;0.47;0.32;;;10.80;99.90;;;;;;5100405;28;20120;-68
2023/10/31 10:35:34;;;;;;;2.50;0.40;;;10.80;99.90;;;;;;5100749;28;20110;-69
2023/10/31 10:38:01;;;;;;;0.57;0.38;;;10.80;99.90;;;;;;5103861;28;20414;-71
2023/10/31 10:40:26;;;;;;;0.50;0.40;;;10.80;99.90;;;;;;5102098;28;20052;-70
2023/10/31 10:42:59;;;;;;;0.73;0.40;;;10.80;99.90;;;;;;5101512;28;20454;-69
2023/10/31 10:45:25;;;;;;;1.00;0.38;;;10.80;99.90;;;;;;5105322;28;20088;-68
2023/10/31 10:47:53;;;;;;;0.70;0.30;;;10.80;99.90;;;;;;5106900;28;20478;-68
2023/10/31 10:50:29;;;;;;;3.50;0.60;;;10.80;99.90;;;;;;5101963;28;20040;-68
2023/10/31 10:53:30;;;;;;;1.55;0.40;;;10.80;99.90;;;;;;5108937;28;20048;-68
2023/10/31 10:56:00;;;;;;;1.13;0.40;;;10.80;99.90;;;;;;5094287;28;20044;-68
2023/10/31 10:58:39;;;;;;;1.83;0.40;;;10.80;99.90;;;;;;5095689;28;20036;-68
2023/10/31 11:01:05;;;;;;;1.27;0.60;;;10.80;99.90;;;;;;5102892;28;20067;-66
2023/10/31 11:03:32;;;;;;;1.58;0.40;;;10.80;99.90;;;;;;5101789;28;20036;-67
2023/10/31 11:05:59;;;;;;;2.10;0.50;;;10.80;99.90;;;;;;5102216;28;20055;-67
2023/10/31 11:08:26;;;;;;;1.80;0.60;;;10.80;99.90;;;;;;5086536;28;20078;-66
2023/10/31 11:10:54;;;;;;;2.28;0.50;;;10.80;99.90;;;;;;5098582;28;20036;-67
2023/10/31 11:13:20;;;;;;;3.00;0.47;;;10.80;99.90;;;;;;5099471;28;20467;-67
2023/10/31 11:15:51;;;;;;;1.88;0.60;;;10.80;99.90;;;;;;5102670;28;20037;-66
2023/10/31 11:18:17;;;;;;;1.33;0.50;;;10.80;99.90;;;;;;5100346;28;20083;-66
2023/10/31 11:20:43;;;;;;;3.85;0.70;;;10.90;99.90;;;;;;5104590;28;20502;-66
2023/10/31 11:23:09;;;;;;;3.83;0.73;;;11.00;99.90;;;;;;5101535;28;20072;-67
2023/10/31 11:25:43;;;;;;;3.08;0.68;;;11.00;99.90;;;;;;5083262;28;20032;-67
2023/10/31 11:28:16;;;;;;;3.22;0.60;;;11.10;99.90;;;;;;5101546;28;20036;-67
2023/10/31 11:30:45;;;;;;;3.03;0.60;;;11.10;99.90;;;;;;5101742;28;20542;-67
2023/10/31 11:33:16;;;;;;;3.28;0.50;;;11.20;99.90;;;;;;5097192;28;20044;-67
2023/10/31 11:35:44;;;;;;;1.00;0.50;;;11.30;99.90;;;;;;5086874;28;20059;-68
2023/10/31 11:38:11;;;;;;;2.25;0.52;;;11.20;99.90;;;;;;5101058;28;20056;-67
2023/10/31 11:40:59;;;;;;;1.73;0.52;;;11.30;99.90;;;;;;5104476;28;20440;-67
2023/10/31 11:43:25;;;;;;;4.47;0.60;;;11.30;99.90;;;;;;5093878;28;20396;-67
2023/10/31 11:45:54;;;;;;;1.95;0.60;;;11.20;99.90;;;;;;5105765;28;20122;-67
2023/10/31 11:48:52;;;;;;;2.63;0.50;;;11.30;99.90;;;;;;5103442;28;20099;-66
2023/10/31 11:51:18;;;;;;;2.28;0.70;;;11.20;99.90;;;;;;5104666;28;20036;-66
2023/10/31 11:53:44;;;;;;;0.77;0.40;;;11.10;99.90;;;;;;5104814;28;20046;-67
2023/10/31 11:56:11;;;;;;;2.67;0.60;;;11.10;99.90;;;;;;5105328;28;20090;-66
2023/10/31 11:58:37;;;;;;;0.82;0.32;;;11.00;99.90;;;;;;5101305;28;20090;-66
2023/10/31 12:01:05;;;;;;;3.20;0.50;;;11.00;99.90;;;;;;5104210;28;20044;-66
2023/10/31 12:03:38;;;;;;;2.25;0.60;;;10.90;99.90;;;;;;5080800;28;20040;-66
2023/10/31 12:06:05;;;;;;;0.90;0.40;;;10.90;99.90;;;;;;5103031;27;20122;-66
2023/10/31 12:08:33;;;;;;;1.88;0.43;;;10.90;99.90;;;;;;5121249;27;20044;-67
2023/10/31 12:11:06;;;;;;;1.67;0.50;;;10.90;99.90;;;;;;5107805;27;20040;-66
2023/10/31 12:13:34;;;;;;;2.13;0.50;;;11.60;99.90;;;;;;5103545;28;20067;-67
2023/10/31 12:16:01;;;;;;;1.63;0.50;;;10.80;99.90;;;;;;5103449;28;20067;-67
2023/10/31 12:18:28;;;;;;;1.55;0.43;;;10.90;99.90;;;;;;5081361;28;20055;-68
2023/10/31 12:20:53;;;;;;;1.45;0.50;;;10.90;99.90;;;;;;5101159;28;20040;-67
2023/10/31 12:23:19;;;;;;;1.98;0.60;;;10.80;99.90;;;;;;5100049;28;20156;-69
2023/10/31 12:25:49;;;;;;;1.35;0.65;;;10.90;99.90;;;;;;5101922;28;20070;-69
2023/10/31 12:28:32;;;;;;;1.45;0.50;;;10.80;99.90;;;;;;5098453;28;20032;-69
2023/10/31 12:30:58;;;;;;;2.17;0.60;;;10.90;99.90;;;;;;5103981;28;20470;-68
2023/10/31 12:33:28;;;;;;;2.78;0.60;;;10.90;99.90;;;;;;5097857;28;20449;-69
2023/10/31 12:35:59;;;;;;;2.97;0.70;;;10.90;99.90;;;;;;5109313;28;20049;-70
2023/10/31 12:38:25;;;;;;;0.88;0.50;;;10.80;99.90;;;;;;5100370;28;20043;-72
2023/10/31 12:40:51;;;;;;;2.80;0.63;;;10.80;99.90;;;;;;5100376;28;20286;-71
2023/10/31 12:43:18;;;;;;;0.88;0.40;;;10.70;99.90;;;;;;5104785;28;20035;-71
2023/10/31 12:45:55;;;;;;;2.83;0.60;;;10.70;99.90;;;;;;5099264;28;20039;-70
2023/10/31 12:48:25;;;;;;;2.03;0.50;;;10.70;99.90;;;;;;5096629;28;20081;-69